Time;durP1;ratioP1;P1;durP2;ratioP2;P2;SDS_P1;SDS_P2;PMS_P1;PMS_P2;Temp;Humidity;BMP_temperature;BMP_pressure;BME280_temperature;BME280_humidity;BME280_pressure;Samples;Min_cycle;Max_cycle;Signal;HPM_P1;HPM_P2
2022/01/11 00:00:21;;;;;;;31.85;13.55;;;;;;;2.03;64.44;98500.63;4486672;32;20189;-79
2022/01/11 00:02:49;;;;;;;30.85;12.82;;;;;;;1.79;65.38;98512.50;4486231;32;20152;-80
2022/01/11 00:05:23;;;;;;;33.17;13.45;;;;;;;2.84;61.82;98507.16;4472724;32;20116;-79
2022/01/11 00:07:51;;;;;;;20.67;8.52;;;;;;;2.57;62.66;98510.69;4473354;32;20084;-79
2022/01/11 00:10:27;;;;;;;29.70;11.75;;;;;;;2.43;63.01;98518.34;4486232;32;20076;-80
2022/01/11 00:12:56;;;;;;;27.05;9.77;;;;;;;2.92;61.54;98519.88;4486873;32;20088;-79
2022/01/11 00:15:23;;;;;;;25.67;11.12;;;;;;;1.99;64.36;98528.59;4474457;32;20626;-79
2022/01/11 00:17:50;;;;;;;26.12;9.65;;;;;;;1.73;65.86;98529.47;4488376;32;20080;-79
2022/01/11 00:20:20;;;;;;;27.50;11.20;;;;;;;1.56;65.78;98535.41;4474296;32;20147;-79
2022/01/11 00:25:24;;;;;;;29.85;11.52;;;;;;;2.03;63.79;98551.53;4489283;32;20160;-79
2022/01/11 00:27:51;;;;;;;27.77;10.63;;;;;;;2.05;63.16;98551.53;4489037;32;20423;-80
2022/01/11 00:30:18;;;;;;;;;;;;;;;2.74;61.09;98561.56;4488517;32;20107;-79
2022/01/11 00:32:50;;;;;;;29.95;11.52;;;;;;;3.14;59.85;98559.69;4488632;32;20035;-80
2022/01/11 00:35:21;;;;;;;31.95;11.75;;;;;;;2.98;59.34;98558.06;4488747;32;20147;-79
2022/01/11 00:37:49;;;;;;;30.65;12.00;;;;;;;4.18;55.82;98571.75;4488170;32;20174;-79
2022/01/11 00:40:16;;;;;;;25.75;11.73;;;;;;;4.27;55.02;98580.19;4488218;32;20160;-80
2022/01/11 00:42:44;;;;;;;31.27;12.35;;;;;;;4.71;53.43;98583.16;4488372;32;20104;-80
2022/01/11 00:45:12;;;;;;;27.35;12.07;;;;;;;5.49;50.79;98581.31;4488082;32;20104;-79
2022/01/11 00:47:41;;;;;;;30.35;11.82;;;;;;;5.89;48.85;98582.47;4474446;32;20134;-79
2022/01/11 00:50:08;;;;;;;30.00;11.93;;;;;;;5.59;49.15;98584.59;4474033;32;20168;-79
2022/01/11 00:52:35;;;;;;;27.73;11.48;;;;;;;6.64;46.07;98587.19;4487774;32;20096;-79
2022/01/11 00:55:02;;;;;;;26.10;11.35;;;;;;;6.31;46.08;98589.47;4474233;32;20172;-79
2022/01/11 00:57:29;;;;;;;27.23;10.82;;;;;;;6.48;46.30;98590.87;4488377;32;20143;-80
2022/01/11 00:59:56;;;;;;;29.15;11.27;;;;;;;6.14;47.08;98603.44;4487916;32;20430;-79
2022/01/11 01:02:23;;;;;;;34.30;12.68;;;;;;;6.33;46.45;98602.25;4488225;32;20088;-79
2022/01/11 01:04:50;;;;;;;31.12;10.68;;;;;;;5.79;47.72;98604.78;4488095;32;20089;-79
2022/01/11 01:07:17;;;;;;;30.65;11.52;;;;;;;5.67;48.51;98613.50;4488312;32;20089;-79
2022/01/11 01:09:57;;;;;;;30.23;12.10;;;;;;;4.67;50.96;98605.31;4487930;32;20092;-79
2022/01/11 01:12:24;;;;;;;26.15;10.05;;;;;;;4.23;52.28;98614.25;4487954;32;20148;-79
2022/01/11 01:14:51;;;;;;;24.77;10.13;;;;;;;4.62;51.53;98609.66;4488243;32;20111;-79
2022/01/11 01:17:18;;;;;;;26.62;10.10;;;;;;;4.77;51.15;98617.16;4488067;32;20494;-79
2022/01/11 01:19:45;;;;;;;26.12;10.27;;;;;;;4.81;51.28;98615.44;4473667;32;20144;-79
2022/01/11 01:22:12;;;;;;;27.25;10.77;;;;;;;5.26;49.48;98621.72;4488026;32;20144;-79
2022/01/11 01:24:39;;;;;;;29.45;11.10;;;;;;;3.81;52.50;98617.97;4487743;32;20775;-79
2022/01/11 01:27:07;;;;;;;24.90;8.60;;;;;;;3.40;54.62;98625.88;4487904;32;20190;-79
2022/01/11 01:29:34;;;;;;;15.90;6.37;;;;;;;1.48;60.94;98632.00;4487958;32;20085;-79
2022/01/11 01:32:01;;;;;;;20.85;7.28;;;;;;;1.42;62.45;98620.16;4473982;32;20164;-79
2022/01/11 01:34:28;;;;;;;17.42;6.20;;;;;;;-0.06;68.28;98616.75;4487788;32;20095;-79
2022/01/11 01:36:54;;;;;;;;;;;;;;;0.23;68.73;98626.31;4488481;32;20155;-79
2022/01/11 01:39:21;;;;;;;20.90;7.78;;;;;;;0.34;67.49;98618.78;4487979;32;19967;-79
2022/01/11 01:41:48;;;;;;;;;;;;;;;0.15;69.49;98620.31;4487843;32;20160;-79
2022/01/11 01:44:15;;;;;;;21.25;8.20;;;;;;;-0.45;72.38;98626.53;4488262;32;19976;-79
2022/01/11 01:46:42;;;;;;;23.85;9.27;;;;;;;1.55;64.91;98630.34;4487886;32;20456;-79
2022/01/11 01:49:15;;;;;;;27.80;9.60;;;;;;;3.16;57.35;98634.47;4473794;32;20072;-79
2022/01/11 01:51:44;;;;;;;29.80;10.45;;;;;;;4.05;53.67;98642.50;4487912;32;20161;-79
2022/01/11 01:54:12;;;;;;;30.20;10.15;;;;;;;3.70;53.65;98630.81;4473504;32;20156;-79
2022/01/11 01:56:40;;;;;;;24.65;9.85;;;;;;;3.45;54.50;98647.97;4487925;32;20447;-79
2022/01/11 01:59:08;;;;;;;29.83;10.65;;;;;;;3.72;53.29;98646.09;4473580;32;20095;-79
2022/01/11 02:01:43;;;;;;;25.65;9.68;;;;;;;4.25;51.44;98643.22;4473409;32;20108;-80
2022/01/11 02:04:11;;;;;;;28.95;10.65;;;;;;;4.84;49.49;98653.75;4487858;32;20149;-80
2022/01/11 02:06:38;;;;;;;25.55;9.25;;;;;;;4.52;50.75;98657.44;4487773;32;20479;-79
2022/01/11 02:09:05;;;;;;;25.10;9.07;;;;;;;5.05;49.02;98657.78;4487396;32;20116;-79
2022/01/11 02:11:33;;;;;;;23.20;9.05;;;;;;;4.94;48.86;98653.63;4487803;32;20131;-79
2022/01/11 02:14:00;;;;;;;26.92;10.32;;;;;;;3.61;52.81;98651.28;4487878;32;20450;-79
2022/01/11 02:16:28;;;;;;;24.90;9.45;;;;;;;4.16;51.32;98647.53;4487436;32;20152;-79
2022/01/11 02:18:55;;;;;;;24.95;9.10;;;;;;;3.59;52.63;98647.88;4487723;32;20080;-79
2022/01/11 02:21:23;;;;;;;23.42;8.05;;;;;;;4.03;51.77;98649.31;4487649;32;20168;-79
2022/01/11 02:23:51;;;;;;;25.90;10.07;;;;;;;3.52;53.30;98643.69;4487253;32;20144;-80
2022/01/11 02:26:18;;;;;;;24.67;8.77;;;;;;;2.72;55.50;98653.28;4487577;31;20111;-79
2022/01/11 02:28:45;;;;;;;22.55;8.50;;;;;;;2.86;55.79;98653.25;4473472;32;20080;-79
2022/01/11 02:31:12;;;;;;;23.17;9.32;;;;;;;2.60;56.71;98653.31;4487299;32;20104;-79
2022/01/11 02:33:44;;;;;;;21.67;8.60;;;;;;;1.97;59.75;98649.94;4487630;32;20144;-79
2022/01/11 02:36:14;;;;;;;27.05;9.00;;;;;;;2.11;58.31;98655.88;4472793;32;20167;-79
2022/01/11 02:38:41;;;;;;;19.83;7.72;;;;;;;2.20;58.57;98645.69;4473480;32;20084;-79
2022/01/11 02:41:08;;;;;;;24.02;8.73;;;;;;;2.12;59.38;98644.84;4487596;32;20118;-79
2022/01/11 02:43:39;;;;;;;;;;;;;;;1.55;61.05;98650.69;4487449;32;20614;-79
2022/01/11 02:46:06;;;;;;;18.15;7.05;;;;;;;2.23;58.77;98650.81;4487696;32;19967;-79
2022/01/11 02:48:33;;;;;;;22.75;8.85;;;;;;;1.68;60.64;98654.97;4487553;32;20707;-79
2022/01/11 02:51:00;;;;;;;;;;;;;;;1.65;60.81;98657.50;4487580;32;20640;-79
2022/01/11 02:53:27;;;;;;;25.58;8.88;;;;;;;1.51;60.53;98656.62;4487713;32;19979;-79
2022/01/11 02:55:54;;;;;;;17.10;6.37;;;;;;;1.36;62.08;98654.88;4487457;32;20131;-79
2022/01/11 02:58:21;;;;;;;25.65;9.40;;;;;;;1.41;61.97;98658.28;4487065;32;20085;-79
2022/01/11 03:00:48;;;;;;;25.62;9.23;;;;;;;1.79;60.54;98665.16;4487492;32;20136;-79
2022/01/11 03:03:22;;;;;;;20.65;7.85;;;;;;;2.07;59.44;98666.06;4473196;32;20164;-79
2022/01/11 03:05:55;;;;;;;27.02;9.13;;;;;;;2.33;58.47;98667.75;4487253;32;20084;-79
2022/01/11 03:08:23;;;;;;;24.10;7.75;;;;;;;2.22;58.79;98672.00;4487248;32;20443;-79
2022/01/11 03:10:51;;;;;;;24.35;9.52;;;;;;;1.56;60.24;98672.75;4487345;32;20164;-80
2022/01/11 03:13:18;;;;;;;20.35;7.97;;;;;;;1.52;59.79;98673.59;4487125;32;20096;-79
2022/01/11 03:15:47;;;;;;;24.75;8.02;;;;;;;1.15;61.33;98663.25;4487452;32;20147;-79
2022/01/11 03:18:15;;;;;;;23.45;9.98;;;;;;;0.80;62.49;98679.16;4486949;32;20494;-79
2022/01/11 03:20:44;;;;;;;24.98;8.88;;;;;;;2.28;58.63;98673.72;4487065;32;20169;-79
2022/01/11 03:23:14;;;;;;;24.50;9.15;;;;;;;2.45;58.07;98677.13;4487230;32;20479;-80
2022/01/11 03:25:41;;;;;;;25.10;8.18;;;;;;;1.85;58.67;98678.75;4472832;32;20103;-79
2022/01/11 03:28:09;;;;;;;26.98;10.00;;;;;;;2.26;57.53;98668.63;4487268;32;20124;-79
2022/01/11 03:30:36;;;;;;;26.50;9.05;;;;;;;1.80;59.55;98680.41;4487198;32;20167;-79
2022/01/11 03:33:03;;;;;;;25.85;9.10;;;;;;;2.20;58.61;98681.34;4486812;32;20135;-79
2022/01/11 03:35:30;;;;;;;25.27;9.20;;;;;;;2.05;59.08;98683.03;4473137;32;20481;-79
2022/01/11 03:37:58;;;;;;;24.63;8.95;;;;;;;2.31;57.57;98679.66;4487135;32;20108;-80
2022/01/11 03:40:25;;;;;;;;;;;;;;;1.60;60.13;98684.63;4472843;32;20108;-79
2022/01/11 03:42:53;;;;;;;24.17;8.63;;;;;;;2.24;57.42;98685.59;4487047;32;20480;-79
2022/01/11 03:45:21;;;;;;;21.20;7.60;;;;;;;2.26;58.05;98685.59;4486970;32;20159;-79
2022/01/11 03:47:50;;;;;;;21.75;7.62;;;;;;;2.37;57.42;98693.25;4486638;32;20439;-79
2022/01/11 03:50:18;;;;;;;24.15;8.52;;;;;;;1.70;59.40;98687.22;4486790;32;20133;-79
2022/01/11 03:52:46;;;;;;;23.52;8.65;;;;;;;2.11;58.56;98693.22;4486996;32;20106;-80
2022/01/11 03:55:21;;;;;;;22.17;8.45;;;;;;;2.11;58.66;98693.22;4487086;32;20159;-79
2022/01/11 03:57:49;;;;;;;24.95;9.38;;;;;;;1.58;59.82;98699.03;4487524;32;20439;-79
2022/01/11 04:00:18;;;;;;;26.65;9.48;;;;;;;1.05;62.98;98695.38;4472611;32;20447;-79
2022/01/11 04:02:45;;;;;;;26.92;9.63;;;;;;;1.54;61.15;98705.81;4486933;32;20093;-79
2022/01/11 04:05:13;;;;;;;20.40;7.37;;;;;;;0.50;64.80;98706.88;4486792;32;20093;-79
2022/01/11 04:07:41;;;;;;;22.40;8.88;;;;;;;1.35;61.95;98699.78;4486490;32;20088;-79
2022/01/11 04:10:09;;;;;;;21.20;7.97;;;;;;;1.37;61.83;98703.19;4486461;32;20428;-79
2022/01/11 04:12:36;;;;;;;16.30;6.03;;;;;;;0.90;63.64;98699.56;4486721;32;20389;-79
2022/01/11 04:15:03;;;;;;;21.15;8.50;;;;;;;0.68;64.87;98685.88;4486353;32;20408;-79
2022/01/11 04:17:30;;;;;;;21.48;7.68;;;;;;;-0.12;68.37;98702.94;4472616;32;20143;-79
2022/01/11 04:19:57;;;;;;;;;;;;;;;-0.09;68.13;98704.69;4486867;32;20111;-79
2022/01/11 04:22:24;;;;;;;25.45;8.48;;;;;;;0.01;68.52;98701.41;4486276;32;19979;-79
2022/01/11 04:24:51;;;;;;;;;;;;;;;-0.38;70.20;98699.28;4486546;32;20085;-78
2022/01/11 04:27:18;;;;;;;23.80;8.18;;;;;;;-1.27;73.80;98715.03;4472464;32;19964;-79
2022/01/11 04:29:45;;;;;;;25.12;10.35;;;;;;;-0.87;72.81;98708.81;4485982;32;20534;-79
2022/01/11 04:32:12;;;;;;;27.87;9.70;;;;;;;-1.20;75.29;98715.13;4486272;32;20160;-79
2022/01/11 04:34:38;;;;;;;33.50;10.00;;;;;;;-1.36;76.14;98718.28;4486239;32;20096;-79
2022/01/11 04:37:05;;;;;;;30.37;10.52;;;;;;;-0.71;73.67;98731.00;4485903;32;20080;-79
2022/01/11 04:39:32;;;;;;;31.52;10.65;;;;;;;-0.26;70.88;98732.38;4486233;32;20148;-79
2022/01/11 04:41:59;;;;;;;;;;;;;;;0.99;65.53;98730.09;4472410;32;20156;-79
2022/01/11 04:44:26;;;;;;;33.80;10.73;;;;;;;1.40;63.66;98740.50;4485980;32;19987;-79
2022/01/11 04:46:53;;;;;;;;;;;;;;;1.68;62.54;98749.09;4486562;32;20517;-79
2022/01/11 04:49:20;;;;;;;28.33;9.68;;;;;;;2.11;60.79;98749.22;4485791;32;19976;-79
2022/01/11 04:51:47;;;;;;;;;;;;;;;2.49;58.68;98760.31;4472291;32;20520;-79
2022/01/11 04:54:14;;;;;;;27.83;9.48;;;;;;;2.12;59.88;98749.22;4472049;32;19994;-79
2022/01/11 04:56:41;;;;;;;29.33;9.52;;;;;;;1.97;60.13;98764.47;4485718;32;20160;-79
2022/01/11 04:59:08;;;;;;;32.20;11.20;;;;;;;2.83;56.86;98768.81;4472147;32;20155;-79
2022/01/11 05:01:35;;;;;;;;;;;;;;;2.38;57.28;98767.09;4488508;32;20200;-80
2022/01/11 05:04:02;;;;;;;27.55;9.00;;;;;;;1.79;59.05;98760.16;4473921;32;19967;-79
2022/01/11 05:06:29;;;;;;;26.23;9.55;;;;;;;0.94;62.03;98758.00;4488369;32;20446;-80
2022/01/11 05:08:56;;;;;;;;;;;;;;;0.83;63.26;98762.16;4488408;32;20104;-79
2022/01/11 05:11:23;;;;;;;23.52;7.93;;;;;;;1.06;63.59;98754.69;4487987;32;19976;-79
2022/01/11 05:13:50;;;;;;;;;;;;;;;0.15;66.50;98770.88;4488579;32;20136;-79
2022/01/11 05:16:17;;;;;;;27.55;9.70;;;;;;;0.85;64.05;98773.19;4488317;32;19982;-79
2022/01/11 05:18:44;;;;;;;32.90;10.57;;;;;;;1.39;62.02;98782.88;4487763;32;20147;-79
2022/01/11 05:21:11;;;;;;;29.02;9.35;;;;;;;1.45;62.35;98780.34;4468938;32;614356;-80
2022/01/11 05:23:38;;;;;;;31.95;11.20;;;;;;;1.06;63.02;98786.06;4487975;32;20106;-79
2022/01/11 05:26:05;;;;;;;30.23;11.30;;;;;;;2.13;59.14;98788.28;4487691;32;20396;-79
2022/01/11 05:28:34;;;;;;;;;;;;;;;1.72;60.08;98784.72;4488495;32;20108;-79
2022/01/11 05:31:03;;;;;;;29.37;10.90;;;;;;;2.29;58.07;98795.09;4488080;32;20353;-79
2022/01/11 05:33:31;;;;;;;28.75;10.13;;;;;;;2.51;56.90;98793.44;4473710;32;20088;-80
2022/01/11 05:35:58;;;;;;;28.98;9.68;;;;;;;2.21;57.81;98797.59;4488118;32;20479;-80
2022/01/11 05:38:25;;;;;;;;;;;;;;;1.86;57.99;98794.13;4488137;32;20112;-79
2022/01/11 05:40:54;;;;;;;31.52;10.23;;;;;;;2.35;57.12;98792.56;4488001;32;20039;-79
2022/01/11 05:43:21;;;;;;;32.83;10.82;;;;;;;1.84;58.39;98789.03;4487968;32;20119;-79
2022/01/11 05:45:48;;;;;;;32.17;10.70;;;;;;;2.26;57.34;98793.41;4487746;32;20475;-79
2022/01/11 05:48:15;;;;;;;29.27;11.02;;;;;;;2.82;55.58;98799.41;4487901;32;20161;-79
2022/01/11 05:50:43;;;;;;;28.55;10.20;;;;;;;2.97;54.78;98799.38;4473767;32;20148;-79
2022/01/11 05:53:10;;;;;;;33.85;12.07;;;;;;;2.21;57.03;98805.25;4487549;32;20140;-79
2022/01/11 05:55:38;;;;;;;24.42;8.38;;;;;;;2.05;57.91;98805.22;4473780;32;20080;-79
2022/01/11 05:58:05;;;;;;;28.73;11.10;;;;;;;1.34;59.88;98811.66;4487855;32;20423;-79
2022/01/11 06:00:32;;;;;;;20.58;8.10;;;;;;;0.98;61.24;98804.63;4487540;32;20100;-79
2022/01/11 06:02:59;;;;;;;29.80;10.02;;;;;;;1.02;61.10;98809.75;4487865;32;20084;-79
2022/01/11 06:05:26;;;;;;;26.65;10.45;;;;;;;0.83;61.83;98805.34;4487920;32;20084;-79
2022/01/11 06:07:53;;;;;;;25.37;9.40;;;;;;;0.53;63.28;98804.28;4473343;32;20115;-78
2022/01/11 06:10:20;;;;;;;29.45;9.60;;;;;;;0.18;64.59;98819.13;4487234;32;20461;-79
2022/01/11 06:12:47;;;;;;;;;;;;;;;0.10;65.17;98818.19;4487649;32;20104;-79
2022/01/11 06:15:14;;;;;;;18.70;6.35;;;;;;;-0.21;66.66;98818.66;4487628;32;20043;-79
2022/01/11 06:17:41;;;;;;;22.60;6.87;;;;;;;-0.18;66.68;98823.78;4487874;32;20151;-79
2022/01/11 06:20:08;;;;;;;;;;;;;;;-0.91;68.77;98836.28;4487911;32;20157;-79
2022/01/11 06:22:37;;;;;;;23.52;7.40;;;;;;;-0.44;68.03;98838.66;4487646;32;19998;-79
2022/01/11 06:25:05;;;;;;;21.77;7.70;;;;;;;0.31;63.89;98850.56;4487402;32;20076;-79
2022/01/11 06:27:33;;;;;;;30.45;9.43;;;;;;;-0.06;65.52;98856.91;4473340;32;20120;-79
2022/01/11 06:30:00;;;;;;;27.17;8.98;;;;;;;0.01;65.81;98868.84;4487669;32;20163;-79
2022/01/11 06:32:27;;;;;;;26.48;10.25;;;;;;;0.37;63.75;98868.41;4473706;32;20106;-79
2022/01/11 06:34:55;;;;;;;;;;;;;;;0.51;62.84;98869.41;4473583;32;20096;-80
2022/01/11 06:37:23;;;;;;;21.15;7.85;;;;;;;-0.70;66.65;98878.84;4487803;32;20024;-79
2022/01/11 06:39:50;;;;;;;29.25;9.80;;;;;;;-0.35;66.04;98879.34;4487473;32;20160;-79
2022/01/11 06:42:16;;;;;;;25.58;8.07;;;;;;;-0.60;66.94;98886.63;4487291;32;20148;-79
2022/01/11 06:44:43;;;;;;;;;;;;;;;-0.62;67.26;98888.28;4487803;32;20088;-79
2022/01/11 06:47:11;;;;;;;34.92;10.35;;;;;;;-0.27;66.03;98895.53;4473674;32;20314;-79
2022/01/11 06:49:39;;;;;;;32.40;9.98;;;;;;;0.23;64.19;98892.81;4487097;32;20172;-79
2022/01/11 06:52:06;;;;;;;34.10;12.73;;;;;;;0.39;63.53;98911.59;4487595;32;20155;-80
2022/01/11 06:54:33;;;;;;;30.58;10.75;;;;;;;0.67;62.27;98910.22;4473578;32;20574;-80
2022/01/11 06:57:00;;;;;;;;;;;;;;;0.62;61.03;98911.84;4487529;32;20431;-81
2022/01/11 06:59:27;;;;;;;31.70;11.00;;;;;;;1.50;58.78;98912.66;4487818;32;19972;-81
2022/01/11 07:01:54;;;;;;;;;;;;;;;1.49;58.13;98917.69;4488923;32;20108;-82
2022/01/11 07:04:21;;;;;;;32.13;10.60;;;;;;;2.07;56.15;98931.66;4487961;32;20412;-82
2022/01/11 07:06:48;;;;;;;;;;;;;;;2.97;52.96;98923.44;4487977;32;20147;-81
2022/01/11 07:09:15;;;;;;;24.92;8.07;;;;;;;2.45;54.21;98929.28;4487642;32;19944;-81
2022/01/11 07:11:41;;;;;;;;;;;;;;;2.09;55.25;98922.31;4487459;32;20172;-81
2022/01/11 07:14:08;;;;;;;33.42;9.93;;;;;;;1.82;55.86;98933.22;4487734;32;20039;-81
2022/01/11 07:16:35;;;;;;;30.08;9.65;;;;;;;2.68;53.84;98937.00;4487643;32;20143;-81
2022/01/11 07:19:03;;;;;;;18.62;6.37;;;;;;;2.03;54.75;98928.25;4487428;32;20100;-81
2022/01/11 07:21:30;;;;;;;26.98;10.15;;;;;;;2.30;54.47;98926.66;4487594;32;20099;-76
2022/01/11 07:23:56;;;;;;;;;;;;;;;2.59;54.08;98927.63;4487129;32;20097;-76
2022/01/11 07:26:24;;;;;;;21.73;7.45;;;;;;;3.16;52.29;98930.28;4487760;32;20036;-77
2022/01/11 07:28:51;;;;;;;33.67;11.75;;;;;;;1.66;56.61;98932.25;4488770;32;20168;-79
2022/01/11 07:31:18;;;;;;;;;;;;;;;1.68;57.02;98932.25;4488148;32;20144;-80
2022/01/11 07:33:45;;;;;;;28.62;9.23;;;;;;;1.22;57.91;98931.06;4487740;32;19975;-78
2022/01/11 07:36:13;;;;;;;;;;;;;;;1.07;59.10;98931.78;4487699;32;20148;-76
2022/01/11 07:38:40;;;;;;;28.73;9.60;;;;;;;1.57;58.31;98932.16;4486544;32;20027;-77
2022/01/11 07:41:07;;;;;;;26.02;9.27;;;;;;;1.57;58.59;98949.13;4487028;32;20087;-76
2022/01/11 07:43:34;;;;;;;;;;;;;;;1.20;58.51;98948.84;4487408;32;20107;-78
2022/01/11 07:46:01;;;;;;;23.58;8.27;;;;;;;1.68;57.80;98955.16;4486654;32;19980;-78
2022/01/11 07:48:28;;;;;;;21.73;8.70;;;;;;;1.66;57.73;98955.13;4487099;32;20096;-77
2022/01/11 07:50:56;;;;;;;21.73;7.62;;;;;;;0.59;60.84;98953.28;4487258;32;20106;-78
2022/01/11 07:53:23;;;;;;;25.73;9.20;;;;;;;1.49;58.15;98954.19;4487066;32;20111;-79
2022/01/11 07:55:50;;;;;;;28.23;10.15;;;;;;;0.63;60.61;98965.19;4488369;32;20115;-78
2022/01/11 07:58:17;;;;;;;31.05;10.40;;;;;;;1.52;58.25;98968.59;4475228;32;20096;-79
2022/01/11 08:00:44;;;;;;;25.45;8.95;;;;;;;1.99;56.86;98967.22;4476748;32;20052;-79
2022/01/11 08:03:11;;;;;;;24.58;8.57;;;;;;;1.92;56.61;98972.28;4473402;32;20087;-75
2022/01/11 08:05:39;;;;;;;20.98;7.75;;;;;;;2.09;55.53;98972.37;4486420;32;20093;-75
2022/01/11 08:08:06;;;;;;;25.65;9.90;;;;;;;1.54;57.40;98967.78;4472601;32;20119;-75
2022/01/11 08:10:33;;;;;;;24.90;9.25;;;;;;;1.86;57.24;98974.78;4472154;32;20112;-75
2022/01/11 08:13:05;;;;;;;32.95;9.73;;;;;;;0.87;59.47;98964.63;4485788;32;20140;-76
2022/01/11 08:15:33;;;;;;;24.58;8.75;;;;;;;1.32;58.25;98968.44;4472928;32;20152;-76
2022/01/11 08:18:00;;;;;;;28.23;8.63;;;;;;;1.18;59.62;98970.00;4485036;32;20504;-76
2022/01/11 08:20:27;;;;;;;;;;;;;;;0.69;60.65;98969.50;4486472;32;20434;-75
2022/01/11 08:22:55;;;;;;;23.85;8.80;;;;;;;0.82;60.09;98958.63;4487025;32;20365;-77
2022/01/11 08:25:25;;;;;;;30.35;9.63;;;;;;;0.26;62.32;98977.44;4488405;32;20092;-77
2022/01/11 08:27:53;;;;;;;21.10;7.28;;;;;;;0.71;61.62;98981.38;4473318;32;20152;-78
2022/01/11 08:30:20;;;;;;;21.20;7.87;;;;;;;0.72;61.16;98983.06;4487007;32;20183;-77
2022/01/11 08:32:46;;;;;;;;;;;;;;;1.38;59.02;98976.97;4487957;32;20586;-77
2022/01/11 08:35:14;;;;;;;23.25;8.38;;;;;;;1.33;59.11;98987.94;4485516;32;19976;-77
2022/01/11 08:37:41;;;;;;;20.02;8.18;;;;;;;1.55;57.13;98986.44;4486823;32;20553;-77
2022/01/11 08:40:08;;;;;;;16.60;6.57;;;;;;;1.10;59.47;98987.72;4486283;32;20184;-77
2022/01/11 08:42:36;;;;;;;18.85;6.75;;;;;;;1.80;56.91;98987.44;4487060;32;20080;-77
2022/01/11 08:45:04;;;;;;;27.33;10.10;;;;;;;1.77;56.83;98990.84;4473466;32;20096;-77
2022/01/11 08:47:32;;;;;;;21.98;7.25;;;;;;;1.70;56.96;99002.69;4487620;32;20157;-77
2022/01/11 08:49:59;;;;;;;;;;;;;;;1.30;56.03;99001.47;4473784;32;20171;-77
2022/01/11 08:52:28;;;;;;;20.70;7.22;;;;;;;2.19;54.90;99000.44;4488574;32;19983;-77
2022/01/11 08:54:56;;;;;;;20.37;7.53;;;;;;;2.13;55.53;98997.88;4488162;32;20425;-77
2022/01/11 08:57:23;;;;;;;22.85;7.30;;;;;;;2.30;54.94;99003.06;4488287;32;20110;-77
2022/01/11 08:59:50;;;;;;;31.48;10.07;;;;;;;1.86;57.19;99008.72;4488292;32;20143;-77
2022/01/11 09:02:20;;;;;;;23.65;8.48;;;;;;;1.49;58.02;99009.25;4487917;32;20109;-77
2022/01/11 09:04:52;;;;;;;22.13;7.62;;;;;;;0.94;59.15;99001.09;4488452;32;20093;-77
2022/01/11 09:07:19;;;;;;;23.15;8.27;;;;;;;1.61;58.25;99019.56;4489849;32;20132;-78
2022/01/11 09:09:46;;;;;;;19.58;8.75;;;;;;;0.82;60.50;99017.91;4474923;32;20148;-77
2022/01/11 09:12:15;;;;;;;19.85;7.00;;;;;;;1.02;58.25;99025.75;4489292;32;20106;-77
2022/01/11 09:14:42;;;;;;;24.33;9.02;;;;;;;0.49;61.43;99018.34;4489113;32;20092;-77
2022/01/11 09:17:09;;;;;;;22.95;9.20;;;;;;;0.77;60.42;99021.25;4488623;32;20096;-78
2022/01/11 09:19:37;;;;;;;19.62;7.18;;;;;;;1.27;60.43;99003.97;4475760;32;20151;-78
2022/01/11 09:22:04;;;;;;;24.02;10.05;;;;;;;1.11;59.28;99005.53;4489167;32;20103;-77
2022/01/11 09:24:35;;;;;;;24.00;8.38;;;;;;;0.82;59.12;98989.97;4488960;32;20100;-77
2022/01/11 09:27:04;;;;;;;26.00;10.30;;;;;;;1.06;59.80;98985.97;4489120;32;20515;-77
2022/01/11 09:29:32;;;;;;;25.08;9.55;;;;;;;1.60;58.03;98992.41;4489319;32;20123;-77
2022/01/11 09:32:01;;;;;;;26.58;9.07;;;;;;;1.59;56.24;99000.84;4489106;32;20124;-77
2022/01/11 09:34:28;;;;;;;23.25;8.80;;;;;;;1.61;57.46;99010.22;4490487;32;20136;-76
2022/01/11 09:36:55;;;;;;;;;;;;;;;1.93;57.07;99019.81;4489096;32;20593;-76
2022/01/11 09:39:22;;;;;;;27.58;9.70;;;;;;;1.56;57.57;99024.59;4474683;32;20352;-76
2022/01/11 09:41:49;;;;;;;24.65;8.85;;;;;;;0.88;58.64;99029.00;4474184;32;20084;-76
2022/01/11 09:44:17;;;;;;;23.12;8.27;;;;;;;2.16;55.21;99025.06;4487884;32;20097;-76
2022/01/11 09:46:44;;;;;;;29.65;11.20;;;;;;;2.89;52.78;99031.38;4488947;32;20126;-77
2022/01/11 09:49:12;;;;;;;30.15;11.23;;;;;;;2.78;52.83;99034.72;4488603;32;20110;-76
2022/01/11 09:51:39;;;;;;;30.75;11.35;;;;;;;3.43;50.75;99039.16;4488060;32;20100;-76
2022/01/11 09:54:08;;;;;;;25.42;9.00;;;;;;;3.00;52.50;99028.00;4488058;32;20585;-77
2022/01/11 09:56:36;;;;;;;31.48;9.93;;;;;;;2.90;51.47;99027.13;4487672;32;20100;-76
2022/01/11 09:59:06;;;;;;;26.65;10.77;;;;;;;3.67;50.29;99030.66;4487336;32;20446;-76
2022/01/11 10:01:35;;;;;;;21.37;8.88;;;;;;;2.38;53.98;99028.56;4473627;32;20092;-75
2022/01/11 10:04:04;;;;;;;24.35;8.48;;;;;;;1.93;54.48;99022.34;4473871;32;20165;-76
2022/01/11 10:06:33;;;;;;;25.98;9.57;;;;;;;1.97;54.86;99024.06;4487553;32;20103;-76
2022/01/11 10:09:18;;;;;;;25.92;9.98;;;;;;;3.12;53.04;99020.38;4487700;32;20107;-76
2022/01/11 10:11:54;;;;;;;25.88;9.43;;;;;;;3.13;52.15;99017.84;4487672;32;20100;-76
2022/01/11 10:14:26;;;;;;;28.27;11.60;;;;;;;2.94;51.34;99016.06;4487771;32;20111;-76
2022/01/11 10:17:19;;;;;;;28.08;10.85;;;;;;;3.71;50.25;99014.50;4488080;32;20096;-77
2022/01/11 10:19:48;;;;;;;27.05;10.57;;;;;;;4.50;47.58;99011.84;4487560;32;20171;-77
2022/01/11 10:22:21;;;;;;;24.92;9.02;;;;;;;4.80;47.15;99015.16;4488211;32;20145;-77
2022/01/11 10:24:51;;;;;;;30.52;10.25;;;;;;;5.36;45.50;99022.50;4487781;32;20663;-76
2022/01/11 10:27:28;;;;;;;28.02;10.13;;;;;;;5.78;44.25;99030.75;4487408;32;20155;-76
2022/01/11 10:30:14;;;;;;;23.42;9.38;;;;;;;5.54;45.29;99043.75;4487557;32;20152;-76
2022/01/11 10:32:45;;;;;;;26.02;10.13;;;;;;;4.92;46.54;99036.41;4487575;32;20171;-76
2022/01/11 10:35:15;;;;;;;26.67;10.18;;;;;;;5.62;44.67;99040.25;4473321;32;20404;-77
2022/01/11 10:38:03;;;;;;;26.80;10.75;;;;;;;4.86;46.92;99033.84;4487537;32;20149;-76
2022/01/11 10:40:34;;;;;;;24.80;11.38;;;;;;;5.89;44.17;99040.91;4487138;32;20167;-75
2022/01/11 10:43:04;;;;;;;21.48;7.45;;;;;;;5.54;44.42;99038.63;4487649;32;20128;-75
2022/01/11 10:45:35;;;;;;;22.80;8.73;;;;;;;6.18;41.67;99040.69;4487477;32;20096;-76
2022/01/11 10:48:11;;;;;;;24.05;8.93;;;;;;;3.47;48.63;99040.84;4487110;32;20506;-75
2022/01/11 10:50:47;;;;;;;29.05;10.23;;;;;;;2.94;51.38;99044.12;4487479;32;20106;-75
2022/01/11 10:53:25;;;;;;;27.92;11.60;;;;;;;3.38;50.58;99036.56;4473443;32;20076;-77
2022/01/11 10:55:57;;;;;;;23.20;8.77;;;;;;;4.97;46.13;99033.81;4487175;32;20148;-76
2022/01/11 10:58:40;;;;;;;28.83;11.73;;;;;;;4.35;47.00;99030.59;4486986;32;20115;-77
2022/01/11 11:01:08;;;;;;;30.50;10.75;;;;;;;4.18;49.61;99031.50;4487138;32;20136;-78
2022/01/11 11:03:36;;;;;;;28.35;10.65;;;;;;;5.65;46.52;99035.13;4487550;32;20072;-77
2022/01/11 11:06:07;;;;;;;28.52;9.95;;;;;;;4.63;46.71;99033.09;4488251;32;20096;-76
2022/01/11 11:08:40;;;;;;;32.30;11.23;;;;;;;3.99;47.90;99039.19;4488149;32;20124;-76
2022/01/11 11:11:12;;;;;;;28.85;10.15;;;;;;;5.04;45.18;99022.69;4487430;32;20095;-77
2022/01/11 11:13:44;;;;;;;28.25;10.02;;;;;;;4.21;47.79;99036.59;4487420;32;20135;-77
2022/01/11 11:16:21;;;;;;;26.55;9.35;;;;;;;4.53;47.17;99021.19;4472829;32;20164;-77
2022/01/11 11:18:50;;;;;;;;;;;;;;;5.09;46.09;99017.53;4488122;32;20073;-78
2022/01/11 11:21:21;;;;;;;28.08;10.25;;;;;;;5.10;44.82;99020.09;4487596;32;19976;-77
2022/01/11 11:23:55;;;;;;;22.98;8.40;;;;;;;3.76;48.34;99023.88;4486878;32;20417;-77
2022/01/11 11:26:25;;;;;;;27.30;8.75;;;;;;;5.20;45.22;99014.06;4473134;32;20115;-77
2022/01/11 11:28:53;;;;;;;31.83;10.85;;;;;;;5.19;46.22;99017.47;4487422;32;20116;-76
2022/01/11 11:31:21;;;;;;;26.75;8.82;;;;;;;4.99;45.91;99003.94;4489295;32;20447;-77
2022/01/11 11:33:50;;;;;;;25.27;8.95;;;;;;;4.45;47.39;99020.34;4487381;32;20107;-77
2022/01/11 11:36:18;;;;;;;22.58;8.50;;;;;;;3.35;50.92;99023.81;4486841;32;20423;-77
2022/01/11 11:38:56;;;;;;;28.42;9.80;;;;;;;3.70;49.46;99007.69;4486927;32;20104;-77
2022/01/11 11:41:24;;;;;;;20.20;7.62;;;;;;;3.54;49.92;99016.22;4460809;32;20271;-78
2022/01/11 11:44:24;;;;;;;23.45;9.35;;;;;;;3.65;49.30;99004.31;4486881;32;20462;-78
2022/01/11 11:46:52;;;;;;;27.98;9.77;;;;;;;3.41;49.59;99023.00;4444608;32;20115;-78